Pagrindinis puslapis
METAR-TAF:

METAR-TAF

Oro uostai :

King Cove, Aliaska, Jungtinės Amerikos Valstijos

platuma: 55-06-59N, ilguma: 162-15-58W, Aukštis: 47 m

Dabartinis oras

Ataskaita buvo paskelbta 50 minutes, ne 18:56 UTC
Vėjas 5 kt iš Rytų
Temperatūra 4°C
Drėgmė 100%
Slėgis 1021 hPa
Matomumas: 16.1 km
Apsiniaukę ne aukštis 1500 ft

METAR: PAVC 281856Z AUTO 10005KT 10SM OVC015 04/04 A3014 RMK AO2 SLP207 T00440039

Laikas: 11:46 (19:46 UTC)


TAF: trūkstamas

Orai ataskaitas ir orų prognozės (METAR, TAF).

turimą stotys yra geltonos ir raudonos taškus žemėlapyje.

Perkelti pele per norėdami pamatyti stoties vardą.

Tada spustelėkite, norėdami matyti oro stebėjimo ir prognozės.

Norėdami pakeisti žemėlapį: spustelėkite ant žalios mygtukų su juodo kryžiaus žemyn,; žalią mygtuką su brūkšneliu, jei norite nutolinti; arba žalių rodyklių gretimoms žemėlapius.


METAR-TAF: